sensor_id;sensor_type;location;lat;lon;timestamp;P1;durP1;ratioP1;P2;durP2;ratioP2
26303;SDS011;57113;48.680;8.890;2022-12-18T00:00:40;31.88;;;17.45;;
26303;SDS011;57113;48.680;8.890;2022-12-18T00:03:06;29.70;;;18.17;;
26303;SDS011;57113;48.680;8.890;2022-12-18T00:05:32;27.35;;;16.88;;
26303;SDS011;57113;48.680;8.890;2022-12-18T00:07:58;30.08;;;17.95;;
26303;SDS011;57113;48.680;8.890;2022-12-18T00:10:23;28.48;;;17.40;;
26303;SDS011;57113;48.680;8.890;2022-12-18T00:12:49;29.77;;;16.98;;
26303;SDS011;57113;48.680;8.890;2022-12-18T00:15:14;28.27;;;17.13;;
26303;SDS011;57113;48.680;8.890;2022-12-18T00:17:40;27.95;;;16.88;;
26303;SDS011;57113;48.680;8.890;2022-12-18T00:20:06;28.17;;;17.27;;
26303;SDS011;57113;48.680;8.890;2022-12-18T00:22:32;28.40;;;16.70;;
26303;SDS011;57113;48.680;8.890;2022-12-18T00:24:58;27.92;;;16.52;;
26303;SDS011;57113;48.680;8.890;2022-12-18T00:27:23;27.63;;;17.13;;
26303;SDS011;57113;48.680;8.890;2022-12-18T00:29:49;30.08;;;17.08;;
26303;SDS011;57113;48.680;8.890;2022-12-18T00:32:15;26.40;;;16.90;;
26303;SDS011;57113;48.680;8.890;2022-12-18T00:34:40;29.92;;;16.70;;
26303;SDS011;57113;48.680;8.890;2022-12-18T00:37:06;26.52;;;16.50;;
26303;SDS011;57113;48.680;8.890;2022-12-18T00:39:32;30.02;;;17.13;;
26303;SDS011;57113;48.680;8.890;2022-12-18T00:41:58;26.05;;;15.68;;
26303;SDS011;57113;48.680;8.890;2022-12-18T00:45:02;27.42;;;15.68;;
26303;SDS011;57113;48.680;8.890;2022-12-18T00:47:28;28.05;;;17.23;;
26303;SDS011;57113;48.680;8.890;2022-12-18T00:49:54;24.88;;;15.63;;
26303;SDS011;57113;48.680;8.890;2022-12-18T00:52:19;25.92;;;15.70;;
26303;SDS011;57113;48.680;8.890;2022-12-18T00:54:45;25.38;;;15.13;;
26303;SDS011;57113;48.680;8.890;2022-12-18T00:57:10;27.02;;;15.77;;
26303;SDS011;57113;48.680;8.890;2022-12-18T00:59:39;26.35;;;15.90;;
26303;SDS011;57113;48.680;8.890;2022-12-18T01:02:04;26.55;;;16.45;;
26303;SDS011;57113;48.680;8.890;2022-12-18T01:04:33;29.25;;;16.65;;
26303;SDS011;57113;48.680;8.890;2022-12-18T01:06:59;28.10;;;16.05;;
26303;SDS011;57113;48.680;8.890;2022-12-18T01:09:25;28.63;;;16.85;;
26303;SDS011;57113;48.680;8.890;2022-12-18T01:11:51;27.50;;;16.30;;
26303;SDS011;57113;48.680;8.890;2022-12-18T01:14:17;28.30;;;15.35;;
26303;SDS011;57113;48.680;8.890;2022-12-18T01:16:42;29.38;;;16.15;;
26303;SDS011;57113;48.680;8.890;2022-12-18T01:19:08;25.02;;;15.80;;
26303;SDS011;57113;48.680;8.890;2022-12-18T01:21:34;26.95;;;16.08;;
26303;SDS011;57113;48.680;8.890;2022-12-18T01:23:59;25.02;;;15.40;;
26303;SDS011;57113;48.680;8.890;2022-12-18T01:26:25;25.33;;;15.77;;
26303;SDS011;57113;48.680;8.890;2022-12-18T01:28:54;26.48;;;16.02;;
26303;SDS011;57113;48.680;8.890;2022-12-18T01:31:22;25.92;;;15.82;;
26303;SDS011;57113;48.680;8.890;2022-12-18T01:33:50;25.50;;;15.55;;
26303;SDS011;57113;48.680;8.890;2022-12-18T01:36:18;25.48;;;16.20;;
26303;SDS011;57113;48.680;8.890;2022-12-18T01:38:46;26.92;;;15.50;;
26303;SDS011;57113;48.680;8.890;2022-12-18T01:41:13;26.92;;;15.80;;
26303;SDS011;57113;48.680;8.890;2022-12-18T01:43:47;26.90;;;15.57;;
26303;SDS011;57113;48.680;8.890;2022-12-18T01:46:16;25.33;;;14.80;;
26303;SDS011;57113;48.680;8.890;2022-12-18T01:48:43;27.92;;;14.25;;
26303;SDS011;57113;48.680;8.890;2022-12-18T01:51:11;25.23;;;15.50;;
26303;SDS011;57113;48.680;8.890;2022-12-18T01:53:38;24.48;;;15.10;;
26303;SDS011;57113;48.680;8.890;2022-12-18T01:56:06;26.27;;;14.80;;
26303;SDS011;57113;48.680;8.890;2022-12-18T01:58:38;25.23;;;15.27;;
26303;SDS011;57113;48.680;8.890;2022-12-18T02:01:18;24.52;;;14.80;;
26303;SDS011;57113;48.680;8.890;2022-12-18T02:03:45;26.17;;;15.25;;
26303;SDS011;57113;48.680;8.890;2022-12-18T02:06:21;24.80;;;14.02;;
26303;SDS011;57113;48.680;8.890;2022-12-18T02:09:17;26.98;;;15.35;;
26303;SDS011;57113;48.680;8.890;2022-12-18T02:17:25;25.85;;;15.00;;
26303;SDS011;57113;48.680;8.890;2022-12-18T02:23:06;24.85;;;14.73;;
26303;SDS011;57113;48.680;8.890;2022-12-18T02:26:09;24.58;;;14.52;;
26303;SDS011;57113;48.680;8.890;2022-12-18T02:28:51;24.52;;;14.77;;
26303;SDS011;57113;48.680;8.890;2022-12-18T02:31:21;27.98;;;15.15;;
26303;SDS011;57113;48.680;8.890;2022-12-18T02:33:51;25.38;;;14.95;;
26303;SDS011;57113;48.680;8.890;2022-12-18T02:36:22;27.58;;;14.95;;
26303;SDS011;57113;48.680;8.890;2022-12-18T02:38:50;25.20;;;15.25;;
26303;SDS011;57113;48.680;8.890;2022-12-18T02:41:18;25.55;;;14.73;;
26303;SDS011;57113;48.680;8.890;2022-12-18T02:43:48;24.30;;;14.82;;
26303;SDS011;57113;48.680;8.890;2022-12-18T02:46:48;22.73;;;14.23;;
26303;SDS011;57113;48.680;8.890;2022-12-18T02:52:05;23.83;;;13.85;;
26303;SDS011;57113;48.680;8.890;2022-12-18T02:54:37;26.92;;;14.57;;
26303;SDS011;57113;48.680;8.890;2022-12-18T03:00:18;25.65;;;14.18;;
26303;SDS011;57113;48.680;8.890;2022-12-18T03:02:57;25.92;;;14.55;;
26303;SDS011;57113;48.680;8.890;2022-12-18T03:05:56;24.63;;;14.32;;
26303;SDS011;57113;48.680;8.890;2022-12-18T03:08:44;25.90;;;14.77;;
26303;SDS011;57113;48.680;8.890;2022-12-18T03:11:14;23.30;;;14.18;;
26303;SDS011;57113;48.680;8.890;2022-12-18T03:13:42;25.85;;;15.18;;
26303;SDS011;57113;48.680;8.890;2022-12-18T03:16:12;27.35;;;14.43;;
26303;SDS011;57113;48.680;8.890;2022-12-18T03:18:44;24.75;;;13.88;;
26303;SDS011;57113;48.680;8.890;2022-12-18T03:21:14;25.10;;;14.65;;
26303;SDS011;57113;48.680;8.890;2022-12-18T03:23:48;24.90;;;15.05;;
26303;SDS011;57113;48.680;8.890;2022-12-18T03:26:17;24.35;;;15.13;;
26303;SDS011;57113;48.680;8.890;2022-12-18T03:28:48;25.45;;;14.73;;
26303;SDS011;57113;48.680;8.890;2022-12-18T03:31:18;22.00;;;13.60;;
26303;SDS011;57113;48.680;8.890;2022-12-18T03:33:48;24.52;;;15.13;;
26303;SDS011;57113;48.680;8.890;2022-12-18T03:36:20;23.98;;;14.75;;
26303;SDS011;57113;48.680;8.890;2022-12-18T03:38:47;23.88;;;14.45;;
26303;SDS011;57113;48.680;8.890;2022-12-18T03:44:29;25.58;;;14.93;;
26303;SDS011;57113;48.680;8.890;2022-12-18T03:55:02;25.95;;;15.02;;
26303;SDS011;57113;48.680;8.890;2022-12-18T03:57:30;29.00;;;15.43;;
26303;SDS011;57113;48.680;8.890;2022-12-18T03:59:58;28.75;;;16.35;;
26303;SDS011;57113;48.680;8.890;2022-12-18T04:02:30;26.27;;;15.55;;
26303;SDS011;57113;48.680;8.890;2022-12-18T04:04:58;27.33;;;15.43;;
26303;SDS011;57113;48.680;8.890;2022-12-18T04:07:27;27.20;;;14.95;;
26303;SDS011;57113;48.680;8.890;2022-12-18T04:09:54;25.60;;;15.48;;
26303;SDS011;57113;48.680;8.890;2022-12-18T04:12:25;26.50;;;16.25;;
26303;SDS011;57113;48.680;8.890;2022-12-18T04:14:54;27.38;;;15.35;;
26303;SDS011;57113;48.680;8.890;2022-12-18T04:17:20;27.60;;;16.05;;
26303;SDS011;57113;48.680;8.890;2022-12-18T04:19:47;29.00;;;15.95;;
26303;SDS011;57113;48.680;8.890;2022-12-18T04:22:13;25.40;;;15.05;;
26303;SDS011;57113;48.680;8.890;2022-12-18T04:24:39;30.48;;;16.02;;
26303;SDS011;57113;48.680;8.890;2022-12-18T04:27:04;27.65;;;15.98;;
26303;SDS011;57113;48.680;8.890;2022-12-18T04:29:30;26.83;;;15.80;;
26303;SDS011;57113;48.680;8.890;2022-12-18T04:31:56;25.92;;;15.15;;
26303;SDS011;57113;48.680;8.890;2022-12-18T04:34:21;25.15;;;15.48;;
26303;SDS011;57113;48.680;8.890;2022-12-18T04:36:47;28.38;;;16.05;;
26303;SDS011;57113;48.680;8.890;2022-12-18T04:39:13;25.45;;;15.50;;
26303;SDS011;57113;48.680;8.890;2022-12-18T04:41:42;26.27;;;15.23;;
26303;SDS011;57113;48.680;8.890;2022-12-18T04:44:07;26.15;;;14.75;;
26303;SDS011;57113;48.680;8.890;2022-12-18T04:46:33;29.15;;;16.13;;
26303;SDS011;57113;48.680;8.890;2022-12-18T04:48:58;26.77;;;15.57;;
26303;SDS011;57113;48.680;8.890;2022-12-18T04:51:24;25.38;;;14.63;;
26303;SDS011;57113;48.680;8.890;2022-12-18T04:53:53;25.50;;;15.52;;
26303;SDS011;57113;48.680;8.890;2022-12-18T04:56:18;28.02;;;14.98;;
26303;SDS011;57113;48.680;8.890;2022-12-18T04:58:44;24.00;;;14.65;;
26303;SDS011;57113;48.680;8.890;2022-12-18T05:01:10;25.92;;;14.30;;
26303;SDS011;57113;48.680;8.890;2022-12-18T05:03:39;24.58;;;14.43;;
26303;SDS011;57113;48.680;8.890;2022-12-18T05:06:10;24.73;;;14.43;;
26303;SDS011;57113;48.680;8.890;2022-12-18T05:08:36;22.65;;;14.63;;
26303;SDS011;57113;48.680;8.890;2022-12-18T05:11:03;26.40;;;15.10;;
26303;SDS011;57113;48.680;8.890;2022-12-18T05:13:34;24.13;;;14.40;;
26303;SDS011;57113;48.680;8.890;2022-12-18T05:16:00;22.45;;;13.70;;
26303;SDS011;57113;48.680;8.890;2022-12-18T05:18:26;24.40;;;14.55;;
26303;SDS011;57113;48.680;8.890;2022-12-18T05:20:53;23.67;;;15.25;;
26303;SDS011;57113;48.680;8.890;2022-12-18T05:23:19;29.60;;;15.50;;
26303;SDS011;57113;48.680;8.890;2022-12-18T05:25:53;27.15;;;16.13;;
26303;SDS011;57113;48.680;8.890;2022-12-18T05:28:20;24.60;;;13.82;;
26303;SDS011;57113;48.680;8.890;2022-12-18T05:30:50;25.13;;;15.50;;
26303;SDS011;57113;48.680;8.890;2022-12-18T05:33:17;29.30;;;15.23;;
26303;SDS011;57113;48.680;8.890;2022-12-18T05:35:43;26.25;;;16.10;;
26303;SDS011;57113;48.680;8.890;2022-12-18T05:38:09;27.38;;;15.38;;
26303;SDS011;57113;48.680;8.890;2022-12-18T05:40:35;22.92;;;14.50;;
26303;SDS011;57113;48.680;8.890;2022-12-18T05:43:04;24.83;;;14.00;;
26303;SDS011;57113;48.680;8.890;2022-12-18T05:45:30;25.88;;;15.35;;
26303;SDS011;57113;48.680;8.890;2022-12-18T05:47:55;23.77;;;14.40;;
26303;SDS011;57113;48.680;8.890;2022-12-18T05:50:21;25.15;;;15.00;;
26303;SDS011;57113;48.680;8.890;2022-12-18T05:52:47;22.98;;;14.75;;
26303;SDS011;57113;48.680;8.890;2022-12-18T05:55:12;26.85;;;15.10;;
26303;SDS011;57113;48.680;8.890;2022-12-18T05:57:38;25.10;;;14.63;;
26303;SDS011;57113;48.680;8.890;2022-12-18T06:00:03;25.30;;;15.10;;
26303;SDS011;57113;48.680;8.890;2022-12-18T06:02:29;21.88;;;14.55;;
26303;SDS011;57113;48.680;8.890;2022-12-18T06:04:55;24.90;;;14.43;;
26303;SDS011;57113;48.680;8.890;2022-12-18T06:07:21;27.95;;;15.05;;
26303;SDS011;57113;48.680;8.890;2022-12-18T06:09:46;23.13;;;14.82;;
26303;SDS011;57113;48.680;8.890;2022-12-18T06:12:12;26.25;;;15.80;;
26303;SDS011;57113;48.680;8.890;2022-12-18T06:14:37;24.50;;;14.65;;
26303;SDS011;57113;48.680;8.890;2022-12-18T06:17:03;24.58;;;14.57;;
26303;SDS011;57113;48.680;8.890;2022-12-18T06:19:29;24.70;;;14.23;;
26303;SDS011;57113;48.680;8.890;2022-12-18T06:21:55;25.02;;;14.70;;
26303;SDS011;57113;48.680;8.890;2022-12-18T06:24:22;24.45;;;14.13;;
26303;SDS011;57113;48.680;8.890;2022-12-18T06:26:48;24.98;;;15.38;;
26303;SDS011;57113;48.680;8.890;2022-12-18T06:29:13;26.10;;;14.68;;
26303;SDS011;57113;48.680;8.890;2022-12-18T06:31:39;25.13;;;14.77;;
26303;SDS011;57113;48.680;8.890;2022-12-18T06:34:05;23.65;;;15.20;;
26303;SDS011;57113;48.680;8.890;2022-12-18T06:36:30;25.55;;;15.00;;
26303;SDS011;57113;48.680;8.890;2022-12-18T06:38:56;23.20;;;14.05;;
26303;SDS011;57113;48.680;8.890;2022-12-18T06:41:22;26.23;;;15.60;;
26303;SDS011;57113;48.680;8.890;2022-12-18T06:43:51;22.95;;;14.57;;
26303;SDS011;57113;48.680;8.890;2022-12-18T06:46:17;24.67;;;15.45;;
26303;SDS011;57113;48.680;8.890;2022-12-18T06:48:42;28.20;;;16.20;;
26303;SDS011;57113;48.680;8.890;2022-12-18T06:51:11;26.05;;;15.73;;
26303;SDS011;57113;48.680;8.890;2022-12-18T06:53:39;24.85;;;14.85;;
26303;SDS011;57113;48.680;8.890;2022-12-18T06:56:06;26.15;;;14.82;;
26303;SDS011;57113;48.680;8.890;2022-12-18T06:58:32;24.52;;;14.18;;
26303;SDS011;57113;48.680;8.890;2022-12-18T07:01:01;25.38;;;15.63;;
26303;SDS011;57113;48.680;8.890;2022-12-18T07:03:28;27.30;;;15.10;;
26303;SDS011;57113;48.680;8.890;2022-12-18T07:05:53;23.95;;;14.68;;
26303;SDS011;57113;48.680;8.890;2022-12-18T07:08:19;24.90;;;14.85;;
26303;SDS011;57113;48.680;8.890;2022-12-18T07:10:45;27.10;;;15.95;;
26303;SDS011;57113;48.680;8.890;2022-12-18T07:13:11;27.27;;;15.77;;
26303;SDS011;57113;48.680;8.890;2022-12-18T07:15:39;25.15;;;14.68;;
26303;SDS011;57113;48.680;8.890;2022-12-18T07:18:04;26.63;;;15.13;;
26303;SDS011;57113;48.680;8.890;2022-12-18T07:20:30;26.92;;;15.65;;
26303;SDS011;57113;48.680;8.890;2022-12-18T07:22:56;25.67;;;15.50;;
26303;SDS011;57113;48.680;8.890;2022-12-18T07:25:22;27.90;;;16.08;;
26303;SDS011;57113;48.680;8.890;2022-12-18T07:27:48;27.63;;;15.32;;
26303;SDS011;57113;48.680;8.890;2022-12-18T07:30:14;25.02;;;14.90;;
26303;SDS011;57113;48.680;8.890;2022-12-18T07:32:39;27.95;;;15.07;;
26303;SDS011;57113;48.680;8.890;2022-12-18T07:35:07;27.30;;;15.65;;
26303;SDS011;57113;48.680;8.890;2022-12-18T07:37:33;27.30;;;15.95;;
26303;SDS011;57113;48.680;8.890;2022-12-18T07:39:58;26.55;;;15.27;;
26303;SDS011;57113;48.680;8.890;2022-12-18T07:42:24;25.27;;;15.57;;
26303;SDS011;57113;48.680;8.890;2022-12-18T07:44:56;25.45;;;15.02;;
26303;SDS011;57113;48.680;8.890;2022-12-18T07:47:22;28.00;;;15.52;;
26303;SDS011;57113;48.680;8.890;2022-12-18T07:49:48;28.40;;;16.08;;
26303;SDS011;57113;48.680;8.890;2022-12-18T07:52:13;26.92;;;15.90;;
26303;SDS011;57113;48.680;8.890;2022-12-18T07:54:39;25.92;;;15.98;;
26303;SDS011;57113;48.680;8.890;2022-12-18T07:57:05;22.80;;;13.80;;
26303;SDS011;57113;48.680;8.890;2022-12-18T07:59:31;27.13;;;16.27;;
26303;SDS011;57113;48.680;8.890;2022-12-18T08:01:57;30.05;;;16.80;;
26303;SDS011;57113;48.680;8.890;2022-12-18T08:04:23;30.35;;;17.20;;
26303;SDS011;57113;48.680;8.890;2022-12-18T08:06:49;30.77;;;18.27;;
26303;SDS011;57113;48.680;8.890;2022-12-18T08:09:15;28.10;;;17.17;;
26303;SDS011;57113;48.680;8.890;2022-12-18T08:11:41;30.25;;;17.92;;
26303;SDS011;57113;48.680;8.890;2022-12-18T08:14:09;32.83;;;18.55;;
26303;SDS011;57113;48.680;8.890;2022-12-18T08:16:35;35.60;;;19.25;;
26303;SDS011;57113;48.680;8.890;2022-12-18T08:19:01;33.80;;;18.67;;
26303;SDS011;57113;48.680;8.890;2022-12-18T08:21:28;34.60;;;18.55;;
26303;SDS011;57113;48.680;8.890;2022-12-18T08:23:56;32.35;;;18.85;;
26303;SDS011;57113;48.680;8.890;2022-12-18T08:26:23;35.33;;;19.25;;
26303;SDS011;57113;48.680;8.890;2022-12-18T08:28:50;29.73;;;18.02;;
26303;SDS011;57113;48.680;8.890;2022-12-18T08:31:17;31.13;;;17.92;;
26303;SDS011;57113;48.680;8.890;2022-12-18T08:33:43;30.67;;;18.17;;
26303;SDS011;57113;48.680;8.890;2022-12-18T08:36:09;31.63;;;18.35;;
26303;SDS011;57113;48.680;8.890;2022-12-18T08:38:35;33.85;;;16.80;;
26303;SDS011;57113;48.680;8.890;2022-12-18T08:41:07;27.63;;;16.50;;
26303;SDS011;57113;48.680;8.890;2022-12-18T08:43:35;26.13;;;16.60;;
26303;SDS011;57113;48.680;8.890;2022-12-18T08:46:20;28.77;;;16.23;;
26303;SDS011;57113;48.680;8.890;2022-12-18T08:48:47;30.38;;;17.08;;
26303;SDS011;57113;48.680;8.890;2022-12-18T08:51:15;29.30;;;17.42;;
26303;SDS011;57113;48.680;8.890;2022-12-18T08:53:41;28.95;;;17.33;;
26303;SDS011;57113;48.680;8.890;2022-12-18T08:56:07;28.85;;;17.27;;
26303;SDS011;57113;48.680;8.890;2022-12-18T08:58:32;28.08;;;17.70;;
26303;SDS011;57113;48.680;8.890;2022-12-18T09:01:02;35.05;;;18.35;;
26303;SDS011;57113;48.680;8.890;2022-12-18T09:03:31;27.67;;;16.65;;
26303;SDS011;57113;48.680;8.890;2022-12-18T09:05:58;27.42;;;16.10;;
26303;SDS011;57113;48.680;8.890;2022-12-18T09:08:24;30.40;;;17.13;;
26303;SDS011;57113;48.680;8.890;2022-12-18T09:10:53;30.88;;;17.25;;
26303;SDS011;57113;48.680;8.890;2022-12-18T09:13:19;29.30;;;16.48;;
26303;SDS011;57113;48.680;8.890;2022-12-18T09:15:45;31.45;;;17.38;;
26303;SDS011;57113;48.680;8.890;2022-12-18T09:18:14;28.40;;;17.70;;
26303;SDS011;57113;48.680;8.890;2022-12-18T09:20:41;28.98;;;17.13;;
26303;SDS011;57113;48.680;8.890;2022-12-18T09:23:07;29.73;;;18.15;;
26303;SDS011;57113;48.680;8.890;2022-12-18T09:25:36;29.52;;;17.55;;
26303;SDS011;57113;48.680;8.890;2022-12-18T09:28:03;29.75;;;17.08;;
26303;SDS011;57113;48.680;8.890;2022-12-18T09:30:37;32.97;;;18.63;;
26303;SDS011;57113;48.680;8.890;2022-12-18T09:33:09;31.08;;;17.27;;
26303;SDS011;57113;48.680;8.890;2022-12-18T09:35:41;28.40;;;17.13;;
26303;SDS011;57113;48.680;8.890;2022-12-18T09:38:08;28.27;;;16.80;;
26303;SDS011;57113;48.680;8.890;2022-12-18T09:40:48;30.93;;;17.90;;
26303;SDS011;57113;48.680;8.890;2022-12-18T09:43:20;28.65;;;17.13;;
26303;SDS011;57113;48.680;8.890;2022-12-18T09:45:53;37.78;;;21.52;;
26303;SDS011;57113;48.680;8.890;2022-12-18T09:48:31;38.60;;;21.23;;
26303;SDS011;57113;48.680;8.890;2022-12-18T09:51:02;38.17;;;21.10;;
26303;SDS011;57113;48.680;8.890;2022-12-18T09:53:35;36.10;;;19.98;;
26303;SDS011;57113;48.680;8.890;2022-12-18T09:56:05;35.95;;;20.25;;
26303;SDS011;57113;48.680;8.890;2022-12-18T09:58:39;34.50;;;20.17;;
26303;SDS011;57113;48.680;8.890;2022-12-18T10:01:14;35.78;;;20.85;;
26303;SDS011;57113;48.680;8.890;2022-12-18T10:03:45;38.67;;;21.40;;
26303;SDS011;57113;48.680;8.890;2022-12-18T10:06:19;33.60;;;19.00;;
26303;SDS011;57113;48.680;8.890;2022-12-18T10:09:06;37.65;;;20.88;;
26303;SDS011;57113;48.680;8.890;2022-12-18T10:12:08;34.65;;;18.63;;
26303;SDS011;57113;48.680;8.890;2022-12-18T10:14:43;30.67;;;18.80;;
26303;SDS011;57113;48.680;8.890;2022-12-18T10:20:24;31.30;;;18.30;;
26303;SDS011;57113;48.680;8.890;2022-12-18T10:23:02;33.60;;;18.08;;
26303;SDS011;57113;48.680;8.890;2022-12-18T10:28:17;32.35;;;18.40;;
26303;SDS011;57113;48.680;8.890;2022-12-18T10:30:45;31.50;;;17.70;;
26303;SDS011;57113;48.680;8.890;2022-12-18T10:33:18;30.15;;;17.48;;
26303;SDS011;57113;48.680;8.890;2022-12-18T10:35:45;27.77;;;16.60;;
26303;SDS011;57113;48.680;8.890;2022-12-18T10:40:58;34.40;;;19.02;;
26303;SDS011;57113;48.680;8.890;2022-12-18T10:43:33;29.48;;;17.58;;
26303;SDS011;57113;48.680;8.890;2022-12-18T10:48:33;30.15;;;17.45;;
26303;SDS011;57113;48.680;8.890;2022-12-18T10:51:01;31.15;;;17.88;;
26303;SDS011;57113;48.680;8.890;2022-12-18T10:53:29;31.35;;;17.08;;
26303;SDS011;57113;48.680;8.890;2022-12-18T10:56:02;28.75;;;17.02;;
26303;SDS011;57113;48.680;8.890;2022-12-18T10:58:31;28.90;;;15.48;;
26303;SDS011;57113;48.680;8.890;2022-12-18T11:06:21;27.52;;;16.50;;
26303;SDS011;57113;48.680;8.890;2022-12-18T11:11:27;28.52;;;17.02;;
26303;SDS011;57113;48.680;8.890;2022-12-18T11:14:01;29.88;;;16.27;;
26303;SDS011;57113;48.680;8.890;2022-12-18T11:16:30;25.35;;;15.07;;
26303;SDS011;57113;48.680;8.890;2022-12-18T11:19:24;27.05;;;15.80;;
26303;SDS011;57113;48.680;8.890;2022-12-18T11:21:56;27.38;;;16.00;;
26303;SDS011;57113;48.680;8.890;2022-12-18T11:24:32;29.17;;;17.10;;
26303;SDS011;57113;48.680;8.890;2022-12-18T11:27:00;27.00;;;16.67;;
26303;SDS011;57113;48.680;8.890;2022-12-18T11:29:32;24.85;;;14.93;;
26303;SDS011;57113;48.680;8.890;2022-12-18T11:34:48;28.52;;;15.50;;
26303;SDS011;57113;48.680;8.890;2022-12-18T11:37:17;28.90;;;16.52;;
26303;SDS011;57113;48.680;8.890;2022-12-18T11:39:48;26.73;;;15.95;;
26303;SDS011;57113;48.680;8.890;2022-12-18T11:42:41;27.75;;;16.15;;
26303;SDS011;57113;48.680;8.890;2022-12-18T11:47:49;26.77;;;16.13;;
26303;SDS011;57113;48.680;8.890;2022-12-18T11:50:41;29.00;;;16.38;;
26303;SDS011;57113;48.680;8.890;2022-12-18T11:53:15;29.50;;;15.90;;
26303;SDS011;57113;48.680;8.890;2022-12-18T12:01:14;27.98;;;15.95;;
26303;SDS011;57113;48.680;8.890;2022-12-18T12:22:16;29.55;;;15.38;;
26303;SDS011;57113;48.680;8.890;2022-12-18T12:24:53;26.25;;;14.70;;
26303;SDS011;57113;48.680;8.890;2022-12-18T12:33:52;27.63;;;15.30;;
26303;SDS011;57113;48.680;8.890;2022-12-18T12:38:57;26.52;;;15.52;;
26303;SDS011;57113;48.680;8.890;2022-12-18T12:41:27;25.70;;;14.90;;
26303;SDS011;57113;48.680;8.890;2022-12-18T12:44:22;28.08;;;15.05;;
26303;SDS011;57113;48.680;8.890;2022-12-18T12:46:52;25.88;;;14.98;;
26303;SDS011;57113;48.680;8.890;2022-12-18T12:49:25;27.48;;;15.48;;
26303;SDS011;57113;48.680;8.890;2022-12-18T12:52:03;25.50;;;14.05;;
26303;SDS011;57113;48.680;8.890;2022-12-18T12:54:31;26.05;;;14.90;;
26303;SDS011;57113;48.680;8.890;2022-12-18T12:57:04;30.50;;;15.98;;
26303;SDS011;57113;48.680;8.890;2022-12-18T13:02:29;25.60;;;15.40;;
26303;SDS011;57113;48.680;8.890;2022-12-18T13:05:16;28.63;;;16.00;;
26303;SDS011;57113;48.680;8.890;2022-12-18T13:08:05;25.65;;;15.13;;
26303;SDS011;57113;48.680;8.890;2022-12-18T13:10:39;25.70;;;15.10;;
26303;SDS011;57113;48.680;8.890;2022-12-18T13:13:08;25.65;;;15.35;;
26303;SDS011;57113;48.680;8.890;2022-12-18T13:15:47;28.73;;;15.02;;
26303;SDS011;57113;48.680;8.890;2022-12-18T13:20:49;28.10;;;16.38;;
26303;SDS011;57113;48.680;8.890;2022-12-18T13:23:19;27.48;;;15.70;;
26303;SDS011;57113;48.680;8.890;2022-12-18T13:25:45;27.63;;;15.60;;
26303;SDS011;57113;48.680;8.890;2022-12-18T13:28:14;28.50;;;15.25;;
26303;SDS011;57113;48.680;8.890;2022-12-18T13:30:54;28.33;;;14.88;;
26303;SDS011;57113;48.680;8.890;2022-12-18T13:36:00;27.95;;;15.93;;
26303;SDS011;57113;48.680;8.890;2022-12-18T13:46:03;27.67;;;15.18;;
26303;SDS011;57113;48.680;8.890;2022-12-18T13:48:33;29.42;;;16.25;;
26303;SDS011;57113;48.680;8.890;2022-12-18T13:51:08;26.13;;;15.07;;
26303;SDS011;57113;48.680;8.890;2022-12-18T13:53:38;24.77;;;14.30;;
26303;SDS011;57113;48.680;8.890;2022-12-18T13:56:08;27.85;;;15.45;;
26303;SDS011;57113;48.680;8.890;2022-12-18T13:58:33;27.85;;;15.65;;
26303;SDS011;57113;48.680;8.890;2022-12-18T14:01:00;29.77;;;15.25;;
26303;SDS011;57113;48.680;8.890;2022-12-18T14:03:28;28.05;;;15.52;;
26303;SDS011;57113;48.680;8.890;2022-12-18T14:05:56;29.17;;;15.63;;
26303;SDS011;57113;48.680;8.890;2022-12-18T14:08:27;30.63;;;16.27;;
26303;SDS011;57113;48.680;8.890;2022-12-18T14:10:58;27.52;;;15.90;;
26303;SDS011;57113;48.680;8.890;2022-12-18T14:13:32;26.92;;;14.77;;
26303;SDS011;57113;48.680;8.890;2022-12-18T14:16:03;28.35;;;16.15;;
26303;SDS011;57113;48.680;8.890;2022-12-18T14:21:03;27.38;;;15.95;;
26303;SDS011;57113;48.680;8.890;2022-12-18T14:23:31;31.63;;;15.90;;
26303;SDS011;57113;48.680;8.890;2022-12-18T14:26:00;26.92;;;15.00;;
26303;SDS011;57113;48.680;8.890;2022-12-18T14:28:28;30.08;;;16.10;;
26303;SDS011;57113;48.680;8.890;2022-12-18T14:30:54;29.30;;;16.17;;
26303;SDS011;57113;48.680;8.890;2022-12-18T14:33:24;29.02;;;16.20;;
26303;SDS011;57113;48.680;8.890;2022-12-18T14:38:26;28.58;;;15.10;;
26303;SDS011;57113;48.680;8.890;2022-12-18T14:40:53;27.52;;;15.80;;
26303;SDS011;57113;48.680;8.890;2022-12-18T14:43:26;26.65;;;15.48;;
26303;SDS011;57113;48.680;8.890;2022-12-18T14:45:54;27.17;;;15.00;;
26303;SDS011;57113;48.680;8.890;2022-12-18T14:48:33;26.67;;;15.48;;
26303;SDS011;57113;48.680;8.890;2022-12-18T14:53:48;31.50;;;17.30;;
26303;SDS011;57113;48.680;8.890;2022-12-18T14:59:04;26.17;;;15.15;;
26303;SDS011;57113;48.680;8.890;2022-12-18T15:01:38;27.75;;;15.50;;
26303;SDS011;57113;48.680;8.890;2022-12-18T15:07:03;29.98;;;16.02;;
26303;SDS011;57113;48.680;8.890;2022-12-18T15:09:29;26.38;;;16.23;;
26303;SDS011;57113;48.680;8.890;2022-12-18T15:11:55;28.70;;;15.73;;
26303;SDS011;57113;48.680;8.890;2022-12-18T15:17:00;29.42;;;16.17;;
26303;SDS011;57113;48.680;8.890;2022-12-18T15:19:35;28.88;;;16.02;;
26303;SDS011;57113;48.680;8.890;2022-12-18T15:22:26;28.40;;;16.55;;
26303;SDS011;57113;48.680;8.890;2022-12-18T15:24:54;27.48;;;16.25;;
26303;SDS011;57113;48.680;8.890;2022-12-18T15:27:22;28.90;;;16.92;;
26303;SDS011;57113;48.680;8.890;2022-12-18T15:30:16;27.85;;;15.60;;
26303;SDS011;57113;48.680;8.890;2022-12-18T15:32:44;31.42;;;16.90;;
26303;SDS011;57113;48.680;8.890;2022-12-18T15:37:41;30.73;;;17.42;;
26303;SDS011;57113;48.680;8.890;2022-12-18T15:40:08;30.27;;;16.80;;
26303;SDS011;57113;48.680;8.890;2022-12-18T15:42:38;32.10;;;17.73;;
26303;SDS011;57113;48.680;8.890;2022-12-18T15:45:22;29.92;;;16.70;;
26303;SDS011;57113;48.680;8.890;2022-12-18T15:47:47;30.00;;;17.02;;
26303;SDS011;57113;48.680;8.890;2022-12-18T15:50:13;29.40;;;17.05;;
26303;SDS011;57113;48.680;8.890;2022-12-18T15:52:40;34.58;;;17.38;;
26303;SDS011;57113;48.680;8.890;2022-12-18T15:55:14;34.05;;;18.58;;
26303;SDS011;57113;48.680;8.890;2022-12-18T15:58:06;31.08;;;16.45;;
26303;SDS011;57113;48.680;8.890;2022-12-18T16:00:37;35.20;;;17.80;;
26303;SDS011;57113;48.680;8.890;2022-12-18T16:03:04;34.67;;;19.00;;
26303;SDS011;57113;48.680;8.890;2022-12-18T16:05:33;31.17;;;17.98;;
26303;SDS011;57113;48.680;8.890;2022-12-18T16:07:58;31.63;;;17.67;;
26303;SDS011;57113;48.680;8.890;2022-12-18T16:10:27;32.30;;;18.30;;
26303;SDS011;57113;48.680;8.890;2022-12-18T16:12:53;34.50;;;18.73;;
26303;SDS011;57113;48.680;8.890;2022-12-18T16:15:21;36.35;;;18.10;;
26303;SDS011;57113;48.680;8.890;2022-12-18T16:17:47;32.75;;;17.95;;
26303;SDS011;57113;48.680;8.890;2022-12-18T16:20:17;33.50;;;18.33;;
26303;SDS011;57113;48.680;8.890;2022-12-18T16:22:45;34.17;;;18.58;;
26303;SDS011;57113;48.680;8.890;2022-12-18T16:25:23;32.63;;;17.80;;
26303;SDS011;57113;48.680;8.890;2022-12-18T16:27:50;30.00;;;17.92;;
26303;SDS011;57113;48.680;8.890;2022-12-18T16:30:27;30.15;;;18.40;;
26303;SDS011;57113;48.680;8.890;2022-12-18T16:32:55;33.72;;;17.98;;